Spicewood's Hourly Summary for Monday, May 14, 2018
Hour Temp
(f)
RH
(%)
Solar Rad.
(MJ/m2)
Rainfall
(in)
Wind
(mph)
5/14/2018 12:00 AM 79 75 0 0 6.54
5/14/2018 1:00 AM 77 79 0 0 6.3
5/14/2018 2:00 AM 75 83 0 0 4.82
5/14/2018 3:00 AM 74 83 0 0 5.82
5/14/2018 4:00 AM 74 82 0 0 5.52
5/14/2018 5:00 AM 74 82 0 0 4.56
5/14/2018 6:00 AM 74 83 0 0 3.56
5/14/2018 7:00 AM 74 86 0.01 0 2.76
5/14/2018 8:00 AM 75 86 0.19 0 3.01
5/14/2018 9:00 AM 77 83 0.53 0 5.17
5/14/2018 10:00 AM 79 77 1.08 0 6.37
5/14/2018 11:00 AM 81 66 1.2 0 7.64
5/14/2018 12:00 PM 84 60 2.43 0 7.21
5/14/2018 1:00 PM 86 54 2.62 0 7.85
5/14/2018 2:00 PM 87 51 2.77 0 7.01
5/14/2018 3:00 PM 87 50 2.86 0 6.77
5/14/2018 4:00 PM 88 48 2.19 0 7.06
5/14/2018 5:00 PM 88 46 1.25 0 7.04
5/14/2018 6:00 PM 88 46 1.52 0 7.4
5/14/2018 7:00 PM 87 46 1.04 0 7.25
5/14/2018 8:00 PM 85 50 0.27 0 6.1
5/14/2018 9:00 PM 82 57 0 0 2.44
5/14/2018 10:00 PM 80 60 0 0 1.65
5/14/2018 11:00 PM 80 64 0 0 1.96
Data Summary 80 66 19.96 0.00 5.49